sensor_id;sensor_type;location;lat;lon;timestamp;P1;durP1;ratioP1;P2;durP2;ratioP2
18702;SDS011;9481;48.796;9.210;2023-02-28T00:00:24;4.63;;;2.03;;
18702;SDS011;9481;48.796;9.210;2023-02-28T00:02:51;4.00;;;1.90;;
18702;SDS011;9481;48.796;9.210;2023-02-28T00:05:17;3.60;;;1.97;;
18702;SDS011;9481;48.796;9.210;2023-02-28T00:07:46;2.53;;;1.60;;
18702;SDS011;9481;48.796;9.210;2023-02-28T00:10:13;3.47;;;1.70;;
18702;SDS011;9481;48.796;9.210;2023-02-28T00:12:52;3.57;;;1.60;;
18702;SDS011;9481;48.796;9.210;2023-02-28T00:15:22;3.03;;;1.80;;
18702;SDS011;9481;48.796;9.210;2023-02-28T00:17:48;2.80;;;1.80;;
18702;SDS011;9481;48.796;9.210;2023-02-28T00:20:15;2.67;;;1.60;;
18702;SDS011;9481;48.796;9.210;2023-02-28T00:22:43;3.30;;;1.70;;
18702;SDS011;9481;48.796;9.210;2023-02-28T00:25:12;2.30;;;1.63;;
18702;SDS011;9481;48.796;9.210;2023-02-28T00:27:44;3.83;;;2.00;;
18702;SDS011;9481;48.796;9.210;2023-02-28T00:30:12;3.20;;;1.63;;
18702;SDS011;9481;48.796;9.210;2023-02-28T00:32:46;2.40;;;1.73;;
18702;SDS011;9481;48.796;9.210;2023-02-28T00:35:12;2.53;;;1.53;;
18702;SDS011;9481;48.796;9.210;2023-02-28T00:37:38;3.13;;;1.67;;
18702;SDS011;9481;48.796;9.210;2023-02-28T00:40:04;3.20;;;1.63;;
18702;SDS011;9481;48.796;9.210;2023-02-28T00:42:31;3.10;;;1.90;;
18702;SDS011;9481;48.796;9.210;2023-02-28T00:44:59;3.53;;;1.87;;
18702;SDS011;9481;48.796;9.210;2023-02-28T00:47:25;3.30;;;2.00;;
18702;SDS011;9481;48.796;9.210;2023-02-28T00:49:50;4.97;;;2.17;;
18702;SDS011;9481;48.796;9.210;2023-02-28T00:52:16;2.63;;;1.73;;
18702;SDS011;9481;48.796;9.210;2023-02-28T00:54:42;2.40;;;1.97;;
18702;SDS011;9481;48.796;9.210;2023-02-28T00:57:07;3.00;;;1.93;;
18702;SDS011;9481;48.796;9.210;2023-02-28T00:59:33;3.10;;;2.00;;
18702;SDS011;9481;48.796;9.210;2023-02-28T01:01:59;2.93;;;1.80;;
18702;SDS011;9481;48.796;9.210;2023-02-28T01:04:25;5.27;;;2.20;;
18702;SDS011;9481;48.796;9.210;2023-02-28T01:06:51;2.60;;;1.73;;
18702;SDS011;9481;48.796;9.210;2023-02-28T01:09:17;4.13;;;1.90;;
18702;SDS011;9481;48.796;9.210;2023-02-28T01:11:42;3.47;;;1.93;;
18702;SDS011;9481;48.796;9.210;2023-02-28T01:14:11;3.07;;;2.10;;
18702;SDS011;9481;48.796;9.210;2023-02-28T01:16:39;3.27;;;1.90;;
18702;SDS011;9481;48.796;9.210;2023-02-28T01:19:05;3.97;;;2.07;;
18702;SDS011;9481;48.796;9.210;2023-02-28T01:21:31;2.90;;;1.90;;
18702;SDS011;9481;48.796;9.210;2023-02-28T01:23:57;3.17;;;1.93;;
18702;SDS011;9481;48.796;9.210;2023-02-28T01:26:23;2.90;;;1.93;;
18702;SDS011;9481;48.796;9.210;2023-02-28T01:28:50;3.93;;;2.13;;
18702;SDS011;9481;48.796;9.210;2023-02-28T01:31:17;4.43;;;2.00;;
18702;SDS011;9481;48.796;9.210;2023-02-28T01:33:45;4.07;;;2.20;;
18702;SDS011;9481;48.796;9.210;2023-02-28T01:36:12;4.67;;;2.20;;
18702;SDS011;9481;48.796;9.210;2023-02-28T01:38:41;3.97;;;2.00;;
18702;SDS011;9481;48.796;9.210;2023-02-28T01:41:08;3.60;;;1.90;;
18702;SDS011;9481;48.796;9.210;2023-02-28T01:47:16;2.63;;;1.90;;
18702;SDS011;9481;48.796;9.210;2023-02-28T01:49:42;4.13;;;2.20;;
18702;SDS011;9481;48.796;9.210;2023-02-28T01:52:08;5.60;;;2.27;;
18702;SDS011;9481;48.796;9.210;2023-02-28T01:54:39;3.30;;;2.00;;
18702;SDS011;9481;48.796;9.210;2023-02-28T01:57:09;2.77;;;2.03;;
18702;SDS011;9481;48.796;9.210;2023-02-28T01:59:51;4.43;;;2.07;;
18702;SDS011;9481;48.796;9.210;2023-02-28T02:02:32;3.17;;;2.00;;
18702;SDS011;9481;48.796;9.210;2023-02-28T02:05:04;4.50;;;2.33;;
18702;SDS011;9481;48.796;9.210;2023-02-28T02:07:37;4.47;;;2.10;;
18702;SDS011;9481;48.796;9.210;2023-02-28T02:10:10;5.03;;;2.53;;
18702;SDS011;9481;48.796;9.210;2023-02-28T02:13:06;4.23;;;2.30;;
18702;SDS011;9481;48.796;9.210;2023-02-28T02:15:49;3.60;;;2.30;;
18702;SDS011;9481;48.796;9.210;2023-02-28T02:21:09;3.40;;;2.07;;
18702;SDS011;9481;48.796;9.210;2023-02-28T02:27:18;3.90;;;2.30;;
18702;SDS011;9481;48.796;9.210;2023-02-28T02:35:56;4.73;;;2.00;;
18702;SDS011;9481;48.796;9.210;2023-02-28T02:41:35;4.00;;;2.20;;
18702;SDS011;9481;48.796;9.210;2023-02-28T02:47:19;3.10;;;2.40;;
18702;SDS011;9481;48.796;9.210;2023-02-28T02:49:50;4.27;;;2.37;;
18702;SDS011;9481;48.796;9.210;2023-02-28T02:52:23;4.80;;;2.73;;
18702;SDS011;9481;48.796;9.210;2023-02-28T02:54:59;3.33;;;2.27;;
18702;SDS011;9481;48.796;9.210;2023-02-28T02:57:43;3.90;;;2.30;;
18702;SDS011;9481;48.796;9.210;2023-02-28T03:00:20;3.37;;;2.20;;
18702;SDS011;9481;48.796;9.210;2023-02-28T03:02:52;3.07;;;2.33;;
18702;SDS011;9481;48.796;9.210;2023-02-28T03:05:21;8.53;;;2.63;;
18702;SDS011;9481;48.796;9.210;2023-02-28T03:07:51;3.70;;;2.40;;
18702;SDS011;9481;48.796;9.210;2023-02-28T03:25:16;3.97;;;2.50;;
18702;SDS011;9481;48.796;9.210;2023-02-28T03:28:07;3.73;;;2.40;;
18702;SDS011;9481;48.796;9.210;2023-02-28T03:33:42;4.80;;;2.30;;
18702;SDS011;9481;48.796;9.210;2023-02-28T03:36:25;3.57;;;2.47;;
18702;SDS011;9481;48.796;9.210;2023-02-28T03:39:09;3.83;;;2.50;;
18702;SDS011;9481;48.796;9.210;2023-02-28T03:41:55;3.90;;;2.70;;
18702;SDS011;9481;48.796;9.210;2023-02-28T03:44:32;3.43;;;2.40;;
18702;SDS011;9481;48.796;9.210;2023-02-28T03:47:07;3.57;;;2.37;;
18702;SDS011;9481;48.796;9.210;2023-02-28T03:49:40;4.43;;;2.53;;
18702;SDS011;9481;48.796;9.210;2023-02-28T03:52:14;3.43;;;2.60;;
18702;SDS011;9481;48.796;9.210;2023-02-28T03:54:45;4.90;;;2.80;;
18702;SDS011;9481;48.796;9.210;2023-02-28T03:57:21;4.47;;;2.60;;
18702;SDS011;9481;48.796;9.210;2023-02-28T04:03:05;4.30;;;2.63;;
18702;SDS011;9481;48.796;9.210;2023-02-28T04:05:31;3.30;;;2.50;;
18702;SDS011;9481;48.796;9.210;2023-02-28T04:08:04;4.37;;;2.97;;
18702;SDS011;9481;48.796;9.210;2023-02-28T04:10:32;3.87;;;2.77;;
18702;SDS011;9481;48.796;9.210;2023-02-28T04:12:58;5.97;;;2.83;;
18702;SDS011;9481;48.796;9.210;2023-02-28T04:15:24;4.73;;;2.60;;
18702;SDS011;9481;48.796;9.210;2023-02-28T04:17:52;3.70;;;2.80;;
18702;SDS011;9481;48.796;9.210;2023-02-28T04:20:18;3.60;;;2.50;;
18702;SDS011;9481;48.796;9.210;2023-02-28T04:22:44;3.37;;;2.90;;
18702;SDS011;9481;48.796;9.210;2023-02-28T04:25:09;4.30;;;3.00;;
18702;SDS011;9481;48.796;9.210;2023-02-28T04:27:35;4.90;;;3.00;;
18702;SDS011;9481;48.796;9.210;2023-02-28T04:30:00;5.20;;;3.30;;
18702;SDS011;9481;48.796;9.210;2023-02-28T04:32:26;5.63;;;3.23;;
18702;SDS011;9481;48.796;9.210;2023-02-28T04:34:52;4.47;;;2.53;;
18702;SDS011;9481;48.796;9.210;2023-02-28T04:37:18;5.40;;;2.97;;
18702;SDS011;9481;48.796;9.210;2023-02-28T04:39:43;4.80;;;2.90;;
18702;SDS011;9481;48.796;9.210;2023-02-28T04:42:09;5.20;;;2.90;;
18702;SDS011;9481;48.796;9.210;2023-02-28T04:44:36;4.90;;;3.10;;
18702;SDS011;9481;48.796;9.210;2023-02-28T04:47:02;7.20;;;3.17;;
18702;SDS011;9481;48.796;9.210;2023-02-28T04:49:27;3.77;;;2.90;;
18702;SDS011;9481;48.796;9.210;2023-02-28T04:51:53;6.00;;;2.97;;
18702;SDS011;9481;48.796;9.210;2023-02-28T04:54:19;4.73;;;2.87;;
18702;SDS011;9481;48.796;9.210;2023-02-28T04:56:45;4.13;;;3.10;;
18702;SDS011;9481;48.796;9.210;2023-02-28T04:59:10;4.20;;;2.90;;
18702;SDS011;9481;48.796;9.210;2023-02-28T05:01:36;4.87;;;2.87;;
18702;SDS011;9481;48.796;9.210;2023-02-28T05:04:02;4.57;;;2.93;;
18702;SDS011;9481;48.796;9.210;2023-02-28T05:06:30;4.60;;;2.93;;
18702;SDS011;9481;48.796;9.210;2023-02-28T05:08:58;4.93;;;3.37;;
18702;SDS011;9481;48.796;9.210;2023-02-28T05:11:28;6.50;;;2.93;;
18702;SDS011;9481;48.796;9.210;2023-02-28T05:14:00;4.13;;;3.23;;
18702;SDS011;9481;48.796;9.210;2023-02-28T05:16:31;6.20;;;3.57;;
18702;SDS011;9481;48.796;9.210;2023-02-28T05:18:57;3.97;;;3.00;;
18702;SDS011;9481;48.796;9.210;2023-02-28T05:21:27;4.47;;;3.10;;
18702;SDS011;9481;48.796;9.210;2023-02-28T05:24:00;4.97;;;3.50;;
18702;SDS011;9481;48.796;9.210;2023-02-28T05:26:30;5.40;;;3.10;;
18702;SDS011;9481;48.796;9.210;2023-02-28T05:28:59;4.27;;;3.10;;
18702;SDS011;9481;48.796;9.210;2023-02-28T05:31:25;4.20;;;3.20;;
18702;SDS011;9481;48.796;9.210;2023-02-28T05:33:51;5.13;;;3.50;;
18702;SDS011;9481;48.796;9.210;2023-02-28T05:36:17;5.03;;;3.33;;
18702;SDS011;9481;48.796;9.210;2023-02-28T05:38:43;5.77;;;3.37;;
18702;SDS011;9481;48.796;9.210;2023-02-28T05:41:12;5.03;;;3.77;;
18702;SDS011;9481;48.796;9.210;2023-02-28T05:43:39;6.90;;;3.60;;
18702;SDS011;9481;48.796;9.210;2023-02-28T05:46:05;5.03;;;3.50;;
18702;SDS011;9481;48.796;9.210;2023-02-28T05:48:33;5.13;;;3.37;;
18702;SDS011;9481;48.796;9.210;2023-02-28T05:51:01;5.70;;;3.60;;
18702;SDS011;9481;48.796;9.210;2023-02-28T05:53:28;4.70;;;3.10;;
18702;SDS011;9481;48.796;9.210;2023-02-28T05:55:54;3.87;;;3.20;;
18702;SDS011;9481;48.796;9.210;2023-02-28T05:58:20;5.20;;;4.00;;
18702;SDS011;9481;48.796;9.210;2023-02-28T06:00:47;5.53;;;3.70;;
18702;SDS011;9481;48.796;9.210;2023-02-28T06:03:14;6.63;;;3.90;;
18702;SDS011;9481;48.796;9.210;2023-02-28T06:05:40;7.00;;;4.20;;
18702;SDS011;9481;48.796;9.210;2023-02-28T06:08:05;6.23;;;3.97;;
18702;SDS011;9481;48.796;9.210;2023-02-28T06:10:32;8.20;;;3.80;;
18702;SDS011;9481;48.796;9.210;2023-02-28T06:13:01;6.63;;;3.90;;
18702;SDS011;9481;48.796;9.210;2023-02-28T06:15:29;6.23;;;3.70;;
18702;SDS011;9481;48.796;9.210;2023-02-28T06:17:55;6.03;;;4.23;;
18702;SDS011;9481;48.796;9.210;2023-02-28T06:20:22;5.00;;;3.73;;
18702;SDS011;9481;48.796;9.210;2023-02-28T06:22:49;6.77;;;3.97;;
18702;SDS011;9481;48.796;9.210;2023-02-28T06:25:19;6.57;;;4.20;;
18702;SDS011;9481;48.796;9.210;2023-02-28T06:27:45;5.90;;;4.30;;
18702;SDS011;9481;48.796;9.210;2023-02-28T06:30:11;7.33;;;4.90;;
18702;SDS011;9481;48.796;9.210;2023-02-28T06:32:37;5.77;;;3.97;;
18702;SDS011;9481;48.796;9.210;2023-02-28T06:35:03;4.97;;;3.97;;
18702;SDS011;9481;48.796;9.210;2023-02-28T06:37:30;5.20;;;4.00;;
18702;SDS011;9481;48.796;9.210;2023-02-28T06:39:57;6.67;;;4.47;;
18702;SDS011;9481;48.796;9.210;2023-02-28T06:42:23;6.33;;;4.33;;
18702;SDS011;9481;48.796;9.210;2023-02-28T06:44:53;5.50;;;4.17;;
18702;SDS011;9481;48.796;9.210;2023-02-28T06:47:23;8.00;;;4.93;;
18702;SDS011;9481;48.796;9.210;2023-02-28T06:49:50;7.03;;;4.27;;
18702;SDS011;9481;48.796;9.210;2023-02-28T06:52:16;9.80;;;4.93;;
18702;SDS011;9481;48.796;9.210;2023-02-28T06:54:41;6.03;;;4.30;;
18702;SDS011;9481;48.796;9.210;2023-02-28T06:57:07;6.87;;;4.67;;
18702;SDS011;9481;48.796;9.210;2023-02-28T06:59:33;5.97;;;4.67;;
18702;SDS011;9481;48.796;9.210;2023-02-28T07:02:00;7.57;;;4.20;;
18702;SDS011;9481;48.796;9.210;2023-02-28T07:04:27;8.30;;;4.83;;
18702;SDS011;9481;48.796;9.210;2023-02-28T07:06:54;6.67;;;4.50;;
18702;SDS011;9481;48.796;9.210;2023-02-28T07:09:21;7.67;;;5.20;;
18702;SDS011;9481;48.796;9.210;2023-02-28T07:11:47;9.70;;;4.80;;
18702;SDS011;9481;48.796;9.210;2023-02-28T07:14:13;7.53;;;4.93;;
18702;SDS011;9481;48.796;9.210;2023-02-28T07:16:39;6.27;;;5.00;;
18702;SDS011;9481;48.796;9.210;2023-02-28T07:19:05;7.60;;;4.80;;
18702;SDS011;9481;48.796;9.210;2023-02-28T07:21:30;7.80;;;4.90;;
18702;SDS011;9481;48.796;9.210;2023-02-28T07:23:56;7.30;;;4.80;;
18702;SDS011;9481;48.796;9.210;2023-02-28T07:26:22;8.17;;;4.90;;
18702;SDS011;9481;48.796;9.210;2023-02-28T07:28:48;9.63;;;4.83;;
18702;SDS011;9481;48.796;9.210;2023-02-28T07:31:14;8.20;;;5.03;;
18702;SDS011;9481;48.796;9.210;2023-02-28T07:33:43;7.27;;;5.00;;
18702;SDS011;9481;48.796;9.210;2023-02-28T07:36:09;7.77;;;4.93;;
18702;SDS011;9481;48.796;9.210;2023-02-28T07:38:40;8.13;;;5.23;;
18702;SDS011;9481;48.796;9.210;2023-02-28T07:41:12;7.10;;;5.33;;
18702;SDS011;9481;48.796;9.210;2023-02-28T07:43:40;7.33;;;5.13;;
18702;SDS011;9481;48.796;9.210;2023-02-28T07:46:07;7.63;;;5.20;;
18702;SDS011;9481;48.796;9.210;2023-02-28T07:48:35;9.03;;;5.60;;
18702;SDS011;9481;48.796;9.210;2023-02-28T07:51:01;8.63;;;5.60;;
18702;SDS011;9481;48.796;9.210;2023-02-28T07:53:28;7.93;;;4.90;;
18702;SDS011;9481;48.796;9.210;2023-02-28T07:55:56;7.87;;;5.70;;
18702;SDS011;9481;48.796;9.210;2023-02-28T07:58:23;7.73;;;5.30;;
18702;SDS011;9481;48.796;9.210;2023-02-28T08:00:50;8.30;;;5.20;;
18702;SDS011;9481;48.796;9.210;2023-02-28T08:03:20;8.30;;;5.43;;
18702;SDS011;9481;48.796;9.210;2023-02-28T08:05:47;7.90;;;5.67;;
18702;SDS011;9481;48.796;9.210;2023-02-28T08:08:14;8.20;;;5.57;;
18702;SDS011;9481;48.796;9.210;2023-02-28T08:10:41;7.80;;;5.43;;
18702;SDS011;9481;48.796;9.210;2023-02-28T08:13:07;8.13;;;5.27;;
18702;SDS011;9481;48.796;9.210;2023-02-28T08:15:33;8.17;;;5.27;;
18702;SDS011;9481;48.796;9.210;2023-02-28T08:17:59;6.70;;;5.03;;
18702;SDS011;9481;48.796;9.210;2023-02-28T08:20:25;8.60;;;5.60;;
18702;SDS011;9481;48.796;9.210;2023-02-28T08:22:51;6.33;;;4.90;;
18702;SDS011;9481;48.796;9.210;2023-02-28T08:25:18;6.57;;;4.97;;
18702;SDS011;9481;48.796;9.210;2023-02-28T08:27:44;8.80;;;5.47;;
18702;SDS011;9481;48.796;9.210;2023-02-28T08:30:10;8.07;;;5.23;;
18702;SDS011;9481;48.796;9.210;2023-02-28T08:32:40;9.70;;;5.70;;
18702;SDS011;9481;48.796;9.210;2023-02-28T08:35:06;9.67;;;5.80;;
18702;SDS011;9481;48.796;9.210;2023-02-28T08:37:34;8.13;;;5.23;;
18702;SDS011;9481;48.796;9.210;2023-02-28T08:40:00;8.20;;;5.30;;
18702;SDS011;9481;48.796;9.210;2023-02-28T08:42:26;10.37;;;5.67;;
18702;SDS011;9481;48.796;9.210;2023-02-28T08:44:51;7.87;;;5.70;;
18702;SDS011;9481;48.796;9.210;2023-02-28T08:47:17;9.70;;;5.60;;
18702;SDS011;9481;48.796;9.210;2023-02-28T08:49:43;7.13;;;5.30;;
18702;SDS011;9481;48.796;9.210;2023-02-28T08:52:09;9.37;;;5.80;;
18702;SDS011;9481;48.796;9.210;2023-02-28T08:54:35;8.37;;;5.73;;
18702;SDS011;9481;48.796;9.210;2023-02-28T08:57:01;7.80;;;5.17;;
18702;SDS011;9481;48.796;9.210;2023-02-28T08:59:28;9.20;;;6.00;;
18702;SDS011;9481;48.796;9.210;2023-02-28T09:01:54;8.33;;;6.03;;
18702;SDS011;9481;48.796;9.210;2023-02-28T09:04:20;7.83;;;5.50;;
18702;SDS011;9481;48.796;9.210;2023-02-28T09:06:46;10.77;;;5.93;;
18702;SDS011;9481;48.796;9.210;2023-02-28T09:09:13;8.37;;;5.57;;
18702;SDS011;9481;48.796;9.210;2023-02-28T09:11:40;7.60;;;5.47;;
18702;SDS011;9481;48.796;9.210;2023-02-28T09:14:06;7.17;;;5.50;;
18702;SDS011;9481;48.796;9.210;2023-02-28T09:16:32;7.77;;;5.67;;
18702;SDS011;9481;48.796;9.210;2023-02-28T09:18:58;9.97;;;5.93;;
18702;SDS011;9481;48.796;9.210;2023-02-28T09:21:24;7.20;;;5.07;;
18702;SDS011;9481;48.796;9.210;2023-02-28T09:23:51;8.50;;;5.73;;
18702;SDS011;9481;48.796;9.210;2023-02-28T09:26:19;10.50;;;5.70;;
18702;SDS011;9481;48.796;9.210;2023-02-28T09:28:47;11.90;;;6.37;;
18702;SDS011;9481;48.796;9.210;2023-02-28T09:31:15;8.40;;;5.43;;
18702;SDS011;9481;48.796;9.210;2023-02-28T09:33:51;8.07;;;5.80;;
18702;SDS011;9481;48.796;9.210;2023-02-28T09:36:19;10.10;;;5.70;;
18702;SDS011;9481;48.796;9.210;2023-02-28T09:38:46;8.37;;;5.80;;
18702;SDS011;9481;48.796;9.210;2023-02-28T09:41:24;10.13;;;5.93;;
18702;SDS011;9481;48.796;9.210;2023-02-28T09:43:57;8.70;;;6.30;;
18702;SDS011;9481;48.796;9.210;2023-02-28T09:46:40;8.87;;;6.00;;
18702;SDS011;9481;48.796;9.210;2023-02-28T09:49:12;12.73;;;6.17;;
18702;SDS011;9481;48.796;9.210;2023-02-28T09:54:27;8.07;;;6.03;;
18702;SDS011;9481;48.796;9.210;2023-02-28T09:56:58;11.40;;;6.23;;
18702;SDS011;9481;48.796;9.210;2023-02-28T09:59:58;9.80;;;5.77;;
18702;SDS011;9481;48.796;9.210;2023-02-28T10:02:40;8.23;;;6.20;;
18702;SDS011;9481;48.796;9.210;2023-02-28T10:05:13;8.63;;;6.00;;
18702;SDS011;9481;48.796;9.210;2023-02-28T10:08:16;8.97;;;5.50;;
18702;SDS011;9481;48.796;9.210;2023-02-28T10:10:51;8.53;;;5.87;;
18702;SDS011;9481;48.796;9.210;2023-02-28T10:16:21;8.33;;;5.60;;
18702;SDS011;9481;48.796;9.210;2023-02-28T10:18:56;9.07;;;6.40;;
18702;SDS011;9481;48.796;9.210;2023-02-28T10:21:31;9.60;;;6.07;;
18702;SDS011;9481;48.796;9.210;2023-02-28T10:24:20;7.60;;;5.57;;
18702;SDS011;9481;48.796;9.210;2023-02-28T10:27:16;9.53;;;5.70;;
18702;SDS011;9481;48.796;9.210;2023-02-28T10:29:48;8.57;;;6.10;;
18702;SDS011;9481;48.796;9.210;2023-02-28T10:32:20;7.57;;;5.70;;
18702;SDS011;9481;48.796;9.210;2023-02-28T10:34:59;8.40;;;5.73;;
18702;SDS011;9481;48.796;9.210;2023-02-28T10:37:38;8.63;;;5.60;;
18702;SDS011;9481;48.796;9.210;2023-02-28T10:40:06;9.43;;;5.87;;
18702;SDS011;9481;48.796;9.210;2023-02-28T10:42:56;8.80;;;5.90;;
18702;SDS011;9481;48.796;9.210;2023-02-28T10:45:23;10.53;;;6.10;;
18702;SDS011;9481;48.796;9.210;2023-02-28T10:47:51;8.00;;;5.50;;
18702;SDS011;9481;48.796;9.210;2023-02-28T10:50:26;8.10;;;5.93;;
18702;SDS011;9481;48.796;9.210;2023-02-28T11:01:48;10.30;;;6.20;;
18702;SDS011;9481;48.796;9.210;2023-02-28T11:06:58;7.37;;;5.77;;
18702;SDS011;9481;48.796;9.210;2023-02-28T11:09:29;11.37;;;7.10;;
18702;SDS011;9481;48.796;9.210;2023-02-28T11:12:04;8.90;;;6.20;;
18702;SDS011;9481;48.796;9.210;2023-02-28T11:14:35;9.33;;;6.70;;
18702;SDS011;9481;48.796;9.210;2023-02-28T11:17:17;9.37;;;6.37;;
18702;SDS011;9481;48.796;9.210;2023-02-28T11:19:48;8.90;;;5.80;;
18702;SDS011;9481;48.796;9.210;2023-02-28T11:22:20;9.77;;;6.20;;
18702;SDS011;9481;48.796;9.210;2023-02-28T11:24:53;10.77;;;6.60;;
18702;SDS011;9481;48.796;9.210;2023-02-28T11:29:55;12.70;;;6.13;;
18702;SDS011;9481;48.796;9.210;2023-02-28T11:32:23;8.87;;;6.30;;
18702;SDS011;9481;48.796;9.210;2023-02-28T11:35:02;8.60;;;6.63;;
18702;SDS011;9481;48.796;9.210;2023-02-28T11:37:41;8.23;;;6.50;;
18702;SDS011;9481;48.796;9.210;2023-02-28T11:40:17;9.43;;;6.73;;
18702;SDS011;9481;48.796;9.210;2023-02-28T11:42:57;9.40;;;6.70;;
18702;SDS011;9481;48.796;9.210;2023-02-28T11:49:15;8.53;;;6.23;;
18702;SDS011;9481;48.796;9.210;2023-02-28T11:51:53;7.43;;;5.60;;
18702;SDS011;9481;48.796;9.210;2023-02-28T11:57:35;11.17;;;7.20;;
18702;SDS011;9481;48.796;9.210;2023-02-28T12:01:03;9.17;;;6.30;;
18702;SDS011;9481;48.796;9.210;2023-02-28T12:06:33;7.40;;;6.03;;
18702;SDS011;9481;48.796;9.210;2023-02-28T12:12:16;9.83;;;5.67;;
18702;SDS011;9481;48.796;9.210;2023-02-28T12:15:23;6.87;;;5.20;;
18702;SDS011;9481;48.796;9.210;2023-02-28T12:21:36;6.70;;;5.50;;
18702;SDS011;9481;48.796;9.210;2023-02-28T12:24:55;9.10;;;6.20;;
18702;SDS011;9481;48.796;9.210;2023-02-28T12:27:36;8.03;;;5.67;;
18702;SDS011;9481;48.796;9.210;2023-02-28T12:30:23;6.73;;;5.67;;
18702;SDS011;9481;48.796;9.210;2023-02-28T12:32:56;6.83;;;5.23;;
18702;SDS011;9481;48.796;9.210;2023-02-28T12:35:50;6.70;;;5.50;;
18702;SDS011;9481;48.796;9.210;2023-02-28T12:38:43;6.10;;;5.50;;
18702;SDS011;9481;48.796;9.210;2023-02-28T12:41:13;8.20;;;5.60;;
18702;SDS011;9481;48.796;9.210;2023-02-28T12:43:49;6.90;;;5.50;;
18702;SDS011;9481;48.796;9.210;2023-02-28T12:46:27;6.93;;;5.67;;
18702;SDS011;9481;48.796;9.210;2023-02-28T12:49:07;7.83;;;5.63;;
18702;SDS011;9481;48.796;9.210;2023-02-28T12:51:40;7.23;;;5.87;;
18702;SDS011;9481;48.796;9.210;2023-02-28T12:54:25;6.83;;;5.10;;
18702;SDS011;9481;48.796;9.210;2023-02-28T12:57:06;6.90;;;6.13;;
18702;SDS011;9481;48.796;9.210;2023-02-28T12:59:49;6.33;;;5.37;;
18702;SDS011;9481;48.796;9.210;2023-02-28T13:02:30;6.17;;;5.27;;
18702;SDS011;9481;48.796;9.210;2023-02-28T13:05:29;6.53;;;5.67;;
18702;SDS011;9481;48.796;9.210;2023-02-28T13:11:01;7.33;;;5.77;;
18702;SDS011;9481;48.796;9.210;2023-02-28T13:13:28;7.10;;;5.50;;
18702;SDS011;9481;48.796;9.210;2023-02-28T13:16:06;6.80;;;6.10;;
18702;SDS011;9481;48.796;9.210;2023-02-28T13:18:42;6.23;;;5.23;;
18702;SDS011;9481;48.796;9.210;2023-02-28T13:21:22;6.87;;;6.10;;
18702;SDS011;9481;48.796;9.210;2023-02-28T13:26:23;6.83;;;6.13;;
18702;SDS011;9481;48.796;9.210;2023-02-28T13:34:30;6.57;;;5.87;;
18702;SDS011;9481;48.796;9.210;2023-02-28T13:37:31;6.43;;;5.83;;
18702;SDS011;9481;48.796;9.210;2023-02-28T13:43:02;6.27;;;5.67;;
18702;SDS011;9481;48.796;9.210;2023-02-28T13:45:28;6.07;;;5.37;;
18702;SDS011;9481;48.796;9.210;2023-02-28T13:48:05;6.27;;;5.77;;
18702;SDS011;9481;48.796;9.210;2023-02-28T13:50:44;6.37;;;5.57;;
18702;SDS011;9481;48.796;9.210;2023-02-28T13:55:46;6.77;;;6.07;;
18702;SDS011;9481;48.796;9.210;2023-02-28T13:58:25;5.83;;;5.23;;
18702;SDS011;9481;48.796;9.210;2023-02-28T14:04:04;6.13;;;5.50;;
18702;SDS011;9481;48.796;9.210;2023-02-28T14:06:59;6.40;;;5.33;;
18702;SDS011;9481;48.796;9.210;2023-02-28T14:09:28;5.63;;;5.13;;
18702;SDS011;9481;48.796;9.210;2023-02-28T14:18:28;7.60;;;5.57;;
18702;SDS011;9481;48.796;9.210;2023-02-28T14:21:10;6.47;;;5.23;;
18702;SDS011;9481;48.796;9.210;2023-02-28T14:26:49;6.63;;;5.93;;
18702;SDS011;9481;48.796;9.210;2023-02-28T14:29:51;7.67;;;5.50;;
18702;SDS011;9481;48.796;9.210;2023-02-28T14:38:33;7.27;;;5.57;;
18702;SDS011;9481;48.796;9.210;2023-02-28T14:41:12;6.77;;;5.33;;
18702;SDS011;9481;48.796;9.210;2023-02-28T14:44:02;6.53;;;5.87;;
18702;SDS011;9481;48.796;9.210;2023-02-28T14:46:47;6.73;;;5.50;;
18702;SDS011;9481;48.796;9.210;2023-02-28T14:49:34;5.70;;;5.00;;
18702;SDS011;9481;48.796;9.210;2023-02-28T14:52:26;7.53;;;5.57;;
18702;SDS011;9481;48.796;9.210;2023-02-28T14:54:56;7.03;;;5.43;;
18702;SDS011;9481;48.796;9.210;2023-02-28T14:57:33;7.30;;;5.50;;
18702;SDS011;9481;48.796;9.210;2023-02-28T15:00:16;7.43;;;5.67;;
18702;SDS011;9481;48.796;9.210;2023-02-28T15:02:51;6.13;;;5.07;;
18702;SDS011;9481;48.796;9.210;2023-02-28T15:10:42;5.93;;;4.90;;
18702;SDS011;9481;48.796;9.210;2023-02-28T15:13:11;6.73;;;5.40;;
18702;SDS011;9481;48.796;9.210;2023-02-28T15:15:41;7.00;;;5.27;;
18702;SDS011;9481;48.796;9.210;2023-02-28T15:18:22;6.50;;;5.50;;
18702;SDS011;9481;48.796;9.210;2023-02-28T15:21:14;5.40;;;4.90;;
18702;SDS011;9481;48.796;9.210;2023-02-28T15:24:00;5.83;;;5.03;;
18702;SDS011;9481;48.796;9.210;2023-02-28T15:26:51;5.70;;;5.10;;
18702;SDS011;9481;48.796;9.210;2023-02-28T15:29:34;6.17;;;5.57;;
18702;SDS011;9481;48.796;9.210;2023-02-28T15:34:55;5.23;;;4.73;;
18702;SDS011;9481;48.796;9.210;2023-02-28T15:40:14;5.43;;;4.80;;
18702;SDS011;9481;48.796;9.210;2023-02-28T15:42:42;6.10;;;5.23;;
18702;SDS011;9481;48.796;9.210;2023-02-28T15:45:49;6.87;;;5.40;;
18702;SDS011;9481;48.796;9.210;2023-02-28T15:48:25;6.20;;;5.40;;
18702;SDS011;9481;48.796;9.210;2023-02-28T15:56:28;5.93;;;5.33;;
18702;SDS011;9481;48.796;9.210;2023-02-28T15:59:01;7.47;;;5.40;;
18702;SDS011;9481;48.796;9.210;2023-02-28T16:01:33;7.53;;;6.20;;
18702;SDS011;9481;48.796;9.210;2023-02-28T16:04:03;6.80;;;5.47;;
18702;SDS011;9481;48.796;9.210;2023-02-28T16:06:41;7.10;;;5.43;;
18702;SDS011;9481;48.796;9.210;2023-02-28T16:09:27;9.10;;;5.90;;
18702;SDS011;9481;48.796;9.210;2023-02-28T16:11:55;6.57;;;5.60;;
18702;SDS011;9481;48.796;9.210;2023-02-28T16:14:26;8.47;;;5.80;;
18702;SDS011;9481;48.796;9.210;2023-02-28T16:17:05;7.83;;;6.20;;
18702;SDS011;9481;48.796;9.210;2023-02-28T16:19:44;7.30;;;5.40;;
18702;SDS011;9481;48.796;9.210;2023-02-28T16:22:10;7.80;;;6.07;;
18702;SDS011;9481;48.796;9.210;2023-02-28T16:24:35;7.20;;;5.97;;
18702;SDS011;9481;48.796;9.210;2023-02-28T16:27:01;6.93;;;5.57;;
18702;SDS011;9481;48.796;9.210;2023-02-28T16:29:28;7.30;;;6.00;;
18702;SDS011;9481;48.796;9.210;2023-02-28T16:31:58;10.97;;;6.53;;
18702;SDS011;9481;48.796;9.210;2023-02-28T16:34:25;8.17;;;6.53;;
18702;SDS011;9481;48.796;9.210;2023-02-28T16:36:51;8.10;;;6.13;;
18702;SDS011;9481;48.796;9.210;2023-02-28T16:39:17;6.60;;;5.77;;
18702;SDS011;9481;48.796;9.210;2023-02-28T16:41:45;8.10;;;5.87;;
18702;SDS011;9481;48.796;9.210;2023-02-28T16:44:17;7.37;;;6.10;;
18702;SDS011;9481;48.796;9.210;2023-02-28T16:46:51;9.83;;;6.43;;
18702;SDS011;9481;48.796;9.210;2023-02-28T16:49:17;9.60;;;6.50;;
18702;SDS011;9481;48.796;9.210;2023-02-28T16:51:43;10.23;;;6.77;;
18702;SDS011;9481;48.796;9.210;2023-02-28T16:54:08;8.37;;;6.37;;
18702;SDS011;9481;48.796;9.210;2023-02-28T16:56:34;8.37;;;6.50;;
18702;SDS011;9481;48.796;9.210;2023-02-28T16:59:00;8.07;;;6.33;;
18702;SDS011;9481;48.796;9.210;2023-02-28T17:01:28;9.20;;;6.70;;
18702;SDS011;9481;48.796;9.210;2023-02-28T17:03:53;8.60;;;6.53;;
18702;SDS011;9481;48.796;9.210;2023-02-28T17:06:21;8.03;;;6.10;;
18702;SDS011;9481;48.796;9.210;2023-02-28T17:08:52;8.17;;;6.00;;
18702;SDS011;9481;48.796;9.210;2023-02-28T17:11:19;11.90;;;6.37;;
18702;SDS011;9481;48.796;9.210;2023-02-28T17:13:47;8.17;;;6.57;;
18702;SDS011;9481;48.796;9.210;2023-02-28T17:18:53;8.47;;;6.60;;
18702;SDS011;9481;48.796;9.210;2023-02-28T17:21:23;8.93;;;6.60;;
18702;SDS011;9481;48.796;9.210;2023-02-28T17:23:49;10.57;;;6.87;;
18702;SDS011;9481;48.796;9.210;2023-02-28T17:26:15;9.83;;;7.17;;
18702;SDS011;9481;48.796;9.210;2023-02-28T17:28:47;12.33;;;7.00;;
18702;SDS011;9481;48.796;9.210;2023-02-28T17:31:13;9.57;;;6.80;;
18702;SDS011;9481;48.796;9.210;2023-02-28T17:33:39;9.53;;;7.47;;
18702;SDS011;9481;48.796;9.210;2023-02-28T17:36:06;12.33;;;7.13;;
18702;SDS011;9481;48.796;9.210;2023-02-28T17:38:47;9.43;;;7.20;;
18702;SDS011;9481;48.796;9.210;2023-02-28T17:41:13;12.97;;;8.27;;